Naxos, Greece
Current Conditions -  °F | °C
As of 11:50 AM on Tuesday 21 Oct 2014 (Local Time) from LGMK Reporting Station
Few Clouds Few Clouds  
Wind Chill: 68°   Ceiling: Unl
Heat Index: 68°   Visibility: 6mi
Dew Point: 54°   Wind: 12mph
Humidity: 60%   Direction: 10°N
Pressure: 29.97"   Gusts: NA
Location:  37.11°N, 25.38°E
Report Text: LGMK 210850Z 01010KT 9999 FEW018 20/12 Q1015
Loading
Personal Weather Stations






























Interactive Weather Map
Tropical Storm Tracking
New forecast layout! Learn more

10-Day Weather Forecast

Advertisements
Track Severe Weather on mobile